Big Creek, Idaho
Current Conditions -  °F | °C
As of 8:51 AM on Wednesday 22 Oct 2014 (Local Time) from KMYL Reporting Station
Moderate Fog Moderate Fog  
Wind Chill: 31°   Ceiling: 200
Heat Index: 31°   Visibility: 0.25mi
Dew Point: 30°   Wind: 0mph
Humidity: 96%   Direction: NA
Pressure: 30.1"   Gusts: NA
Location:  45.13°N, 115.32°W
Report Text: KMYL 221451Z AUTO 00000KT 1/4SM FZFG VV002 M01/M01 A3010 RMK AO2 SLP211 T10061011 53003
Loading
Personal Weather Stations






























Interactive Weather Map
Tropical Storm Tracking
New forecast layout! Learn more

10-Day Weather Forecast

Advertisements
Track Severe Weather on mobile